sensor_id;sensor_type;location;lat;lon;timestamp;pressure;altitude;pressure_sealevel;temperature;humidity
7264;BME280;3673;52.480;13.348;2023-08-20T00:00:34;101332.44;;;31.69;44.35
7264;BME280;3673;52.480;13.348;2023-08-20T00:03:06;101334.50;;;31.76;44.12
7264;BME280;3673;52.480;13.348;2023-08-20T00:05:37;101322.94;;;31.63;44.48
7264;BME280;3673;52.480;13.348;2023-08-20T00:08:04;101339.75;;;31.44;45.45
7264;BME280;3673;52.480;13.348;2023-08-20T00:10:32;101336.41;;;31.41;45.30
7264;BME280;3673;52.480;13.348;2023-08-20T00:12:59;101337.38;;;31.40;45.48
7264;BME280;3673;52.480;13.348;2023-08-20T00:15:26;101339.50;;;31.47;45.10
7264;BME280;3673;52.480;13.348;2023-08-20T00:17:54;101338.06;;;31.20;45.62
7264;BME280;3673;52.480;13.348;2023-08-20T00:20:22;101339.22;;;31.39;45.55
7264;BME280;3673;52.480;13.348;2023-08-20T00:22:50;101339.22;;;31.28;45.66
7264;BME280;3673;52.480;13.348;2023-08-20T00:25:17;101344.63;;;31.39;45.36
7264;BME280;3673;52.480;13.348;2023-08-20T00:27:45;101347.19;;;31.64;45.03
7264;BME280;3673;52.480;13.348;2023-08-20T00:30:12;101350.53;;;31.33;45.72
7264;BME280;3673;52.480;13.348;2023-08-20T00:32:40;101345.56;;;31.51;45.17
7264;BME280;3673;52.480;13.348;2023-08-20T00:35:07;101352.34;;;31.68;44.87
7264;BME280;3673;52.480;13.348;2023-08-20T00:37:34;101354.53;;;31.62;44.57
7264;BME280;3673;52.480;13.348;2023-08-20T00:40:01;101350.25;;;31.71;44.41
7264;BME280;3673;52.480;13.348;2023-08-20T00:42:30;101353.81;;;31.60;44.61
7264;BME280;3673;52.480;13.348;2023-08-20T00:44:58;101355.53;;;31.61;44.70
7264;BME280;3673;52.480;13.348;2023-08-20T00:47:25;101349.91;;;31.19;45.41
7264;BME280;3673;52.480;13.348;2023-08-20T00:49:52;101355.06;;;31.33;45.42
7264;BME280;3673;52.480;13.348;2023-08-20T00:52:20;101358.97;;;30.94;46.15
7264;BME280;3673;52.480;13.348;2023-08-20T00:54:49;101365.09;;;31.08;46.02
7264;BME280;3673;52.480;13.348;2023-08-20T00:57:18;101362.88;;;30.55;47.89
7264;BME280;3673;52.480;13.348;2023-08-20T00:59:48;101369.78;;;30.59;47.82
7264;BME280;3673;52.480;13.348;2023-08-20T01:02:16;101375.94;;;30.36;48.93
7264;BME280;3673;52.480;13.348;2023-08-20T01:04:44;101376.06;;;30.71;48.13
7264;BME280;3673;52.480;13.348;2023-08-20T01:07:18;101371.22;;;30.27;49.61
7264;BME280;3673;52.480;13.348;2023-08-20T01:09:53;101379.13;;;30.17;50.15
7264;BME280;3673;52.480;13.348;2023-08-20T01:12:24;101381.97;;;30.39;50.14
7264;BME280;3673;52.480;13.348;2023-08-20T01:14:52;101383.03;;;30.26;50.63
7264;BME280;3673;52.480;13.348;2023-08-20T01:17:20;101374.78;;;30.27;50.72
7264;BME280;3673;52.480;13.348;2023-08-20T01:19:47;101381.94;;;30.28;51.07
7264;BME280;3673;52.480;13.348;2023-08-20T01:22:50;101390.47;;;30.22;51.76
7264;BME280;3673;52.480;13.348;2023-08-20T01:25:44;101384.22;;;30.22;52.25
7264;BME280;3673;52.480;13.348;2023-08-20T01:28:26;101390.03;;;30.28;52.09
7264;BME280;3673;52.480;13.348;2023-08-20T01:30:54;101383.69;;;30.53;50.94
7264;BME280;3673;52.480;13.348;2023-08-20T01:33:22;101387.97;;;30.44;51.92
7264;BME280;3673;52.480;13.348;2023-08-20T01:35:49;101381.69;;;30.44;51.85
7264;BME280;3673;52.480;13.348;2023-08-20T01:38:16;101391.72;;;30.54;51.18
7264;BME280;3673;52.480;13.348;2023-08-20T01:40:43;101393.25;;;30.33;52.50
7264;BME280;3673;52.480;13.348;2023-08-20T01:43:10;101389.91;;;30.30;52.27
7264;BME280;3673;52.480;13.348;2023-08-20T01:45:38;101398.31;;;30.38;51.88
7264;BME280;3673;52.480;13.348;2023-08-20T01:48:06;101402.13;;;30.35;52.68
7264;BME280;3673;52.480;13.348;2023-08-20T01:50:34;101405.16;;;30.18;52.68
7264;BME280;3673;52.480;13.348;2023-08-20T01:53:01;101406.00;;;30.31;52.11
7264;BME280;3673;52.480;13.348;2023-08-20T01:55:29;101407.75;;;30.32;52.21
7264;BME280;3673;52.480;13.348;2023-08-20T01:57:55;101409.09;;;29.89;53.91
7264;BME280;3673;52.480;13.348;2023-08-20T02:00:22;101411.25;;;29.84;53.90
7264;BME280;3673;52.480;13.348;2023-08-20T02:02:50;101412.09;;;30.22;52.93
7264;BME280;3673;52.480;13.348;2023-08-20T02:05:18;101412.84;;;29.86;53.60
7264;BME280;3673;52.480;13.348;2023-08-20T02:07:45;101418.03;;;29.89;53.78
7264;BME280;3673;52.480;13.348;2023-08-20T02:10:11;101411.44;;;29.81;54.25
7264;BME280;3673;52.480;13.348;2023-08-20T02:12:38;101417.56;;;29.83;53.88
7264;BME280;3673;52.480;13.348;2023-08-20T02:15:06;101416.53;;;29.98;53.36
7264;BME280;3673;52.480;13.348;2023-08-20T02:17:33;101426.97;;;29.77;53.99
7264;BME280;3673;52.480;13.348;2023-08-20T02:20:03;101426.34;;;29.86;54.04
7264;BME280;3673;52.480;13.348;2023-08-20T02:22:31;101425.38;;;30.00;53.12
7264;BME280;3673;52.480;13.348;2023-08-20T02:24:59;101432.81;;;29.96;53.10
7264;BME280;3673;52.480;13.348;2023-08-20T02:27:26;101428.50;;;30.06;53.64
7264;BME280;3673;52.480;13.348;2023-08-20T02:29:53;101435.09;;;30.02;53.54
7264;BME280;3673;52.480;13.348;2023-08-20T02:32:19;101435.16;;;29.63;54.55
7264;BME280;3673;52.480;13.348;2023-08-20T02:34:50;101442.81;;;29.69;53.87
7264;BME280;3673;52.480;13.348;2023-08-20T02:37:18;101446.44;;;29.30;55.45
7264;BME280;3673;52.480;13.348;2023-08-20T02:39:45;101440.69;;;29.22;55.57
7264;BME280;3673;52.480;13.348;2023-08-20T02:42:12;101450.53;;;29.09;55.91
7264;BME280;3673;52.480;13.348;2023-08-20T02:44:38;101445.19;;;29.22;55.74
7264;BME280;3673;52.480;13.348;2023-08-20T02:47:06;101440.38;;;29.27;55.56
7264;BME280;3673;52.480;13.348;2023-08-20T02:49:32;101449.47;;;29.11;55.79
7264;BME280;3673;52.480;13.348;2023-08-20T02:51:59;101456.72;;;29.24;55.62
7264;BME280;3673;52.480;13.348;2023-08-20T02:54:27;101453.84;;;29.00;56.12
7264;BME280;3673;52.480;13.348;2023-08-20T02:56:54;101454.81;;;29.26;55.49
7264;BME280;3673;52.480;13.348;2023-08-20T02:59:21;101450.44;;;28.84;56.87
7264;BME280;3673;52.480;13.348;2023-08-20T03:01:48;101444.75;;;29.42;54.53
7264;BME280;3673;52.480;13.348;2023-08-20T03:04:15;101449.06;;;29.18;55.59
7264;BME280;3673;52.480;13.348;2023-08-20T03:06:42;101445.00;;;29.25;55.59
7264;BME280;3673;52.480;13.348;2023-08-20T03:09:09;101449.81;;;29.20;55.62
7264;BME280;3673;52.480;13.348;2023-08-20T03:11:37;101472.38;;;29.19;55.86
7264;BME280;3673;52.480;13.348;2023-08-20T03:14:04;101470.34;;;29.22;55.80
7264;BME280;3673;52.480;13.348;2023-08-20T03:16:31;101467.66;;;28.81;57.26
7264;BME280;3673;52.480;13.348;2023-08-20T03:18:57;101471.50;;;28.91;57.05
7264;BME280;3673;52.480;13.348;2023-08-20T03:21:24;101476.13;;;29.43;55.13
7264;BME280;3673;52.480;13.348;2023-08-20T03:23:51;101484.38;;;29.27;55.88
7264;BME280;3673;52.480;13.348;2023-08-20T03:26:17;101485.88;;;28.78;57.41
7264;BME280;3673;52.480;13.348;2023-08-20T03:28:45;101494.13;;;28.60;58.20
7264;BME280;3673;52.480;13.348;2023-08-20T03:31:12;101488.28;;;28.40;58.52
7264;BME280;3673;52.480;13.348;2023-08-20T03:33:39;101479.25;;;28.55;58.40
7264;BME280;3673;52.480;13.348;2023-08-20T03:36:06;101480.56;;;28.76;57.42
7264;BME280;3673;52.480;13.348;2023-08-20T03:38:32;101484.53;;;28.71;57.82
7264;BME280;3673;52.480;13.348;2023-08-20T03:40:59;101473.50;;;29.02;56.48
7264;BME280;3673;52.480;13.348;2023-08-20T03:43:26;101483.88;;;28.94;56.75
7264;BME280;3673;52.480;13.348;2023-08-20T03:45:54;101483.72;;;28.83;57.68
7264;BME280;3673;52.480;13.348;2023-08-20T03:48:21;101490.78;;;28.71;57.82
7264;BME280;3673;52.480;13.348;2023-08-20T03:50:47;101481.34;;;28.50;58.64
7264;BME280;3673;52.480;13.348;2023-08-20T03:53:14;101484.53;;;28.71;57.96
7264;BME280;3673;52.480;13.348;2023-08-20T03:55:41;101481.63;;;28.59;58.10
7264;BME280;3673;52.480;13.348;2023-08-20T03:58:08;101495.06;;;28.59;58.46
7264;BME280;3673;52.480;13.348;2023-08-20T04:00:35;101508.97;;;28.25;59.52
7264;BME280;3673;52.480;13.348;2023-08-20T04:03:03;101505.22;;;28.28;59.70
7264;BME280;3673;52.480;13.348;2023-08-20T04:05:36;101501.19;;;28.35;59.00
7264;BME280;3673;52.480;13.348;2023-08-20T04:08:03;101500.47;;;28.59;58.28
7264;BME280;3673;52.480;13.348;2023-08-20T04:10:31;101505.81;;;29.02;56.58
7264;BME280;3673;52.480;13.348;2023-08-20T04:12:58;101490.38;;;28.77;57.49
7264;BME280;3673;52.480;13.348;2023-08-20T04:15:25;101500.22;;;29.05;56.79
7264;BME280;3673;52.480;13.348;2023-08-20T04:17:51;101493.44;;;28.85;57.56
7264;BME280;3673;52.480;13.348;2023-08-20T04:20:19;101496.53;;;28.79;57.38
7264;BME280;3673;52.480;13.348;2023-08-20T04:22:46;101502.94;;;29.05;56.75
7264;BME280;3673;52.480;13.348;2023-08-20T04:25:13;101512.47;;;28.96;56.75
7264;BME280;3673;52.480;13.348;2023-08-20T04:27:40;101512.16;;;29.01;56.72
7264;BME280;3673;52.480;13.348;2023-08-20T04:30:08;101506.00;;;28.72;58.27
7264;BME280;3673;52.480;13.348;2023-08-20T04:32:35;101509.53;;;28.30;59.90
7264;BME280;3673;52.480;13.348;2023-08-20T04:35:02;101513.94;;;28.17;60.58
7264;BME280;3673;52.480;13.348;2023-08-20T04:37:30;101516.56;;;28.03;61.01
7264;BME280;3673;52.480;13.348;2023-08-20T04:39:57;101526.09;;;28.38;59.85
7264;BME280;3673;52.480;13.348;2023-08-20T04:42:23;101527.41;;;28.59;59.03
7264;BME280;3673;52.480;13.348;2023-08-20T04:44:50;101525.97;;;28.82;58.31
7264;BME280;3673;52.480;13.348;2023-08-20T04:47:17;101533.34;;;28.93;57.60
7264;BME280;3673;52.480;13.348;2023-08-20T04:49:43;101526.31;;;29.04;56.69
7264;BME280;3673;52.480;13.348;2023-08-20T04:52:10;101530.84;;;28.90;57.56
7264;BME280;3673;52.480;13.348;2023-08-20T04:54:38;101514.72;;;28.47;59.39
7264;BME280;3673;52.480;13.348;2023-08-20T04:57:05;101516.72;;;28.86;57.81
7264;BME280;3673;52.480;13.348;2023-08-20T04:59:32;101524.22;;;28.95;57.45
7264;BME280;3673;52.480;13.348;2023-08-20T05:01:58;101528.50;;;28.71;58.63
7264;BME280;3673;52.480;13.348;2023-08-20T05:04:25;101528.34;;;29.01;57.19
7264;BME280;3673;52.480;13.348;2023-08-20T05:06:52;101530.97;;;28.60;58.78
7264;BME280;3673;52.480;13.348;2023-08-20T05:09:18;101535.97;;;28.52;59.36
7264;BME280;3673;52.480;13.348;2023-08-20T05:11:46;101531.84;;;28.60;58.78
7264;BME280;3673;52.480;13.348;2023-08-20T05:14:13;101523.50;;;29.06;57.18
7264;BME280;3673;52.480;13.348;2023-08-20T05:16:40;101532.09;;;28.98;57.41
7264;BME280;3673;52.480;13.348;2023-08-20T05:19:06;101537.44;;;29.12;57.17
7264;BME280;3673;52.480;13.348;2023-08-20T05:21:33;101543.59;;;28.74;58.54
7264;BME280;3673;52.480;13.348;2023-08-20T05:24:00;101543.38;;;28.77;58.35
7264;BME280;3673;52.480;13.348;2023-08-20T05:26:27;101547.03;;;28.47;59.20
7264;BME280;3673;52.480;13.348;2023-08-20T05:28:55;101556.47;;;28.54;58.79
7264;BME280;3673;52.480;13.348;2023-08-20T05:31:22;101560.00;;;28.41;59.83
7264;BME280;3673;52.480;13.348;2023-08-20T05:33:48;101574.97;;;28.75;58.76
7264;BME280;3673;52.480;13.348;2023-08-20T05:36:15;101565.78;;;28.63;58.65
7264;BME280;3673;52.480;13.348;2023-08-20T05:38:42;101561.34;;;29.04;57.31
7264;BME280;3673;52.480;13.348;2023-08-20T05:41:08;101566.00;;;29.29;56.35
7264;BME280;3673;52.480;13.348;2023-08-20T05:43:36;101579.31;;;29.32;56.14
7264;BME280;3673;52.480;13.348;2023-08-20T05:46:04;101578.13;;;28.95;57.35
7264;BME280;3673;52.480;13.348;2023-08-20T05:48:31;101593.81;;;28.75;58.08
7264;BME280;3673;52.480;13.348;2023-08-20T05:50:58;101594.84;;;28.86;57.82
7264;BME280;3673;52.480;13.348;2023-08-20T05:53:24;101585.63;;;28.90;57.32
7264;BME280;3673;52.480;13.348;2023-08-20T05:55:51;101580.03;;;28.93;56.94
7264;BME280;3673;52.480;13.348;2023-08-20T05:58:18;101583.31;;;29.39;55.73
7264;BME280;3673;52.480;13.348;2023-08-20T06:00:44;101572.41;;;29.28;56.12
7264;BME280;3673;52.480;13.348;2023-08-20T06:03:13;101577.38;;;29.34;55.64
7264;BME280;3673;52.480;13.348;2023-08-20T06:05:40;101587.75;;;29.67;54.72
7264;BME280;3673;52.480;13.348;2023-08-20T06:08:07;101589.13;;;29.60;54.72
7264;BME280;3673;52.480;13.348;2023-08-20T06:10:33;101595.34;;;29.75;54.46
7264;BME280;3673;52.480;13.348;2023-08-20T06:13:00;101576.72;;;29.17;56.00
7264;BME280;3673;52.480;13.348;2023-08-20T06:15:27;101583.53;;;29.36;55.54
7264;BME280;3673;52.480;13.348;2023-08-20T06:17:53;101585.06;;;29.40;55.20
7264;BME280;3673;52.480;13.348;2023-08-20T06:20:21;101596.91;;;29.38;55.53
7264;BME280;3673;52.480;13.348;2023-08-20T06:22:48;101596.59;;;29.42;55.18
7264;BME280;3673;52.480;13.348;2023-08-20T06:25:15;101617.59;;;28.52;57.81
7264;BME280;3673;52.480;13.348;2023-08-20T06:27:42;101614.03;;;28.24;58.77
7264;BME280;3673;52.480;13.348;2023-08-20T06:30:10;101607.38;;;28.29;58.89
7264;BME280;3673;52.480;13.348;2023-08-20T06:32:37;101609.59;;;28.95;56.85
7264;BME280;3673;52.480;13.348;2023-08-20T06:35:05;101613.31;;;29.06;56.46
7264;BME280;3673;52.480;13.348;2023-08-20T06:37:33;101615.00;;;28.37;58.48
7264;BME280;3673;52.480;13.348;2023-08-20T06:39:59;101612.22;;;28.52;57.97
7264;BME280;3673;52.480;13.348;2023-08-20T06:42:26;101611.91;;;28.15;59.04
7264;BME280;3673;52.480;13.348;2023-08-20T06:44:53;101615.34;;;28.17;58.84
7264;BME280;3673;52.480;13.348;2023-08-20T06:47:19;101621.19;;;28.39;58.24
7264;BME280;3673;52.480;13.348;2023-08-20T06:49:46;101622.38;;;27.74;60.26
7264;BME280;3673;52.480;13.348;2023-08-20T06:52:13;101626.50;;;28.10;59.27
7264;BME280;3673;52.480;13.348;2023-08-20T06:54:41;101636.59;;;27.91;60.05
7264;BME280;3673;52.480;13.348;2023-08-20T06:57:08;101630.72;;;27.99;59.55
7264;BME280;3673;52.480;13.348;2023-08-20T06:59:35;101638.22;;;28.53;57.88
7264;BME280;3673;52.480;13.348;2023-08-20T07:02:02;101641.50;;;28.15;58.53
7264;BME280;3673;52.480;13.348;2023-08-20T07:04:29;101653.09;;;27.38;61.02
7264;BME280;3673;52.480;13.348;2023-08-20T07:06:55;101659.25;;;27.56;60.84
7264;BME280;3673;52.480;13.348;2023-08-20T07:09:24;101667.16;;;27.59;60.57
7264;BME280;3673;52.480;13.348;2023-08-20T07:11:52;101661.31;;;27.98;59.39
7264;BME280;3673;52.480;13.348;2023-08-20T07:14:18;101662.69;;;28.05;58.69
7264;BME280;3673;52.480;13.348;2023-08-20T07:16:45;101665.19;;;27.92;58.79
7264;BME280;3673;52.480;13.348;2023-08-20T07:19:12;101657.63;;;27.99;58.86
7264;BME280;3673;52.480;13.348;2023-08-20T07:21:38;101665.09;;;28.69;56.76
7264;BME280;3673;52.480;13.348;2023-08-20T07:24:06;101673.69;;;28.16;57.77
7264;BME280;3673;52.480;13.348;2023-08-20T07:26:33;101679.53;;;28.08;58.13
7264;BME280;3673;52.480;13.348;2023-08-20T07:29:01;101688.41;;;27.48;60.21
7264;BME280;3673;52.480;13.348;2023-08-20T07:31:29;101680.31;;;28.10;58.52
7264;BME280;3673;52.480;13.348;2023-08-20T07:33:58;101673.94;;;28.27;57.52
7264;BME280;3673;52.480;13.348;2023-08-20T07:36:26;101682.41;;;28.35;57.18
7264;BME280;3673;52.480;13.348;2023-08-20T07:38:53;101673.19;;;28.83;56.06
7264;BME280;3673;52.480;13.348;2023-08-20T07:41:21;101672.47;;;28.22;57.00
7264;BME280;3673;52.480;13.348;2023-08-20T07:43:48;101680.13;;;28.13;57.24
7264;BME280;3673;52.480;13.348;2023-08-20T07:46:16;101680.59;;;28.80;55.44
7264;BME280;3673;52.480;13.348;2023-08-20T07:48:43;101682.16;;;29.12;54.47
7264;BME280;3673;52.480;13.348;2023-08-20T07:51:10;101680.22;;;29.00;54.18
7264;BME280;3673;52.480;13.348;2023-08-20T07:53:37;101688.09;;;29.03;54.57
7264;BME280;3673;52.480;13.348;2023-08-20T07:56:04;101686.09;;;29.49;53.49
7264;BME280;3673;52.480;13.348;2023-08-20T07:58:32;101694.66;;;29.41;53.27
7264;BME280;3673;52.480;13.348;2023-08-20T08:00:58;101699.75;;;28.75;54.16
7264;BME280;3673;52.480;13.348;2023-08-20T08:03:26;101689.19;;;29.14;53.62
7264;BME280;3673;52.480;13.348;2023-08-20T08:05:54;101686.97;;;28.79;53.85
7264;BME280;3673;52.480;13.348;2023-08-20T08:08:21;101686.09;;;29.49;52.36
7264;BME280;3673;52.480;13.348;2023-08-20T08:10:49;101677.72;;;29.11;52.63
7264;BME280;3673;52.480;13.348;2023-08-20T08:13:19;101689.16;;;28.86;52.83
7264;BME280;3673;52.480;13.348;2023-08-20T08:15:46;101688.41;;;29.27;51.63
7264;BME280;3673;52.480;13.348;2023-08-20T08:18:13;101687.53;;;29.12;51.94
7264;BME280;3673;52.480;13.348;2023-08-20T08:20:41;101697.34;;;28.41;53.56
7264;BME280;3673;52.480;13.348;2023-08-20T08:23:08;101707.47;;;28.06;54.36
7264;BME280;3673;52.480;13.348;2023-08-20T08:25:35;101694.50;;;28.58;52.86
7264;BME280;3673;52.480;13.348;2023-08-20T08:28:03;101696.97;;;29.33;51.35
7264;BME280;3673;52.480;13.348;2023-08-20T08:30:30;101690.03;;;29.29;51.50
7264;BME280;3673;52.480;13.348;2023-08-20T08:32:57;101683.88;;;29.82;49.65
7264;BME280;3673;52.480;13.348;2023-08-20T08:35:24;101689.16;;;29.98;48.86
7264;BME280;3673;52.480;13.348;2023-08-20T08:37:52;101694.03;;;30.05;48.72
7264;BME280;3673;52.480;13.348;2023-08-20T08:40:19;101695.63;;;29.40;49.67
7264;BME280;3673;52.480;13.348;2023-08-20T08:42:48;101700.84;;;30.11;48.14
7264;BME280;3673;52.480;13.348;2023-08-20T08:45:18;101690.25;;;30.08;47.92
7264;BME280;3673;52.480;13.348;2023-08-20T08:47:46;101694.50;;;30.25;47.51
7264;BME280;3673;52.480;13.348;2023-08-20T08:50:14;101688.47;;;29.94;47.96
7264;BME280;3673;52.480;13.348;2023-08-20T08:52:41;101695.03;;;30.17;46.87
7264;BME280;3673;52.480;13.348;2023-08-20T08:55:10;101690.59;;;30.16;47.11
7264;BME280;3673;52.480;13.348;2023-08-20T08:57:38;101688.56;;;30.84;45.73
7264;BME280;3673;52.480;13.348;2023-08-20T09:00:06;101691.38;;;31.21;45.05
7264;BME280;3673;52.480;13.348;2023-08-20T09:02:33;101691.91;;;31.13;44.11
7264;BME280;3673;52.480;13.348;2023-08-20T09:05:00;101693.00;;;31.36;43.95
7264;BME280;3673;52.480;13.348;2023-08-20T09:07:27;101684.88;;;31.23;44.08
7264;BME280;3673;52.480;13.348;2023-08-20T09:09:58;101687.88;;;31.80;42.75
7264;BME280;3673;52.480;13.348;2023-08-20T09:12:27;101686.13;;;31.43;42.58
7264;BME280;3673;52.480;13.348;2023-08-20T09:14:54;101683.78;;;31.75;42.51
7264;BME280;3673;52.480;13.348;2023-08-20T09:17:25;101681.59;;;32.03;41.67
7264;BME280;3673;52.480;13.348;2023-08-20T09:19:54;101674.81;;;31.98;41.29
7264;BME280;3673;52.480;13.348;2023-08-20T09:22:23;101674.00;;;31.61;41.68
7264;BME280;3673;52.480;13.348;2023-08-20T09:24:54;101672.53;;;32.04;41.49
7264;BME280;3673;52.480;13.348;2023-08-20T09:27:22;101673.66;;;32.13;41.13
7264;BME280;3673;52.480;13.348;2023-08-20T09:29:53;101676.75;;;31.96;41.19
7264;BME280;3673;52.480;13.348;2023-08-20T09:32:22;101672.19;;;31.73;41.37
7264;BME280;3673;52.480;13.348;2023-08-20T09:34:50;101674.97;;;31.47;41.23
7264;BME280;3673;52.480;13.348;2023-08-20T09:37:19;101675.97;;;31.34;41.59
7264;BME280;3673;52.480;13.348;2023-08-20T09:39:46;101667.59;;;32.09;40.11
7264;BME280;3673;52.480;13.348;2023-08-20T09:42:13;101671.41;;;32.66;39.04
7264;BME280;3673;52.480;13.348;2023-08-20T09:44:42;101673.41;;;32.51;38.78
7264;BME280;3673;52.480;13.348;2023-08-20T09:47:11;101680.88;;;32.71;38.41
7264;BME280;3673;52.480;13.348;2023-08-20T09:49:40;101686.94;;;32.40;39.21
7264;BME280;3673;52.480;13.348;2023-08-20T09:52:09;101668.13;;;33.18;37.89
7264;BME280;3673;52.480;13.348;2023-08-20T09:54:55;101685.53;;;34.23;35.78
7264;BME280;3673;52.480;13.348;2023-08-20T09:57:33;101683.34;;;33.74;35.90
7264;BME280;3673;52.480;13.348;2023-08-20T10:00:02;101681.69;;;33.18;36.88
7264;BME280;3673;52.480;13.348;2023-08-20T10:02:33;101687.25;;;33.92;35.66
7264;BME280;3673;52.480;13.348;2023-08-20T10:05:00;101685.97;;;33.64;36.33
7264;BME280;3673;52.480;13.348;2023-08-20T10:07:29;101684.69;;;34.43;34.74
7264;BME280;3673;52.480;13.348;2023-08-20T10:09:59;101694.97;;;34.60;34.64
7264;BME280;3673;52.480;13.348;2023-08-20T10:12:27;101692.53;;;34.78;34.33
7264;BME280;3673;52.480;13.348;2023-08-20T10:14:55;101691.31;;;34.50;33.82
7264;BME280;3673;52.480;13.348;2023-08-20T10:17:23;101688.31;;;34.95;33.61
7264;BME280;3673;52.480;13.348;2023-08-20T10:19:52;101694.19;;;34.49;32.95
7264;BME280;3673;52.480;13.348;2023-08-20T10:22:19;101687.63;;;34.20;34.01
7264;BME280;3673;52.480;13.348;2023-08-20T10:24:52;101687.84;;;34.90;32.86
7264;BME280;3673;52.480;13.348;2023-08-20T10:27:26;101679.63;;;35.31;32.83
7264;BME280;3673;52.480;13.348;2023-08-20T10:29:54;101680.31;;;35.03;32.67
7264;BME280;3673;52.480;13.348;2023-08-20T10:32:45;101683.28;;;34.28;33.82
7264;BME280;3673;52.480;13.348;2023-08-20T10:35:16;101676.69;;;34.93;32.86
7264;BME280;3673;52.480;13.348;2023-08-20T10:38:06;101665.38;;;34.88;32.57
7264;BME280;3673;52.480;13.348;2023-08-20T10:40:52;101665.69;;;34.94;32.48
7264;BME280;3673;52.480;13.348;2023-08-20T10:43:29;101667.84;;;34.29;33.43
7264;BME280;3673;52.480;13.348;2023-08-20T10:46:14;101673.00;;;34.94;32.17
7264;BME280;3673;52.480;13.348;2023-08-20T10:48:42;101662.22;;;35.13;31.72
7264;BME280;3673;52.480;13.348;2023-08-20T10:51:13;101661.06;;;35.46;31.80
7264;BME280;3673;52.480;13.348;2023-08-20T10:53:41;101665.13;;;35.71;31.25
7264;BME280;3673;52.480;13.348;2023-08-20T10:56:14;101656.81;;;36.49;30.30
7264;BME280;3673;52.480;13.348;2023-08-20T10:58:43;101664.88;;;36.41;30.35
7264;BME280;3673;52.480;13.348;2023-08-20T11:01:19;101662.84;;;36.04;30.63
7264;BME280;3673;52.480;13.348;2023-08-20T11:03:49;101661.44;;;36.10;30.61
7264;BME280;3673;52.480;13.348;2023-08-20T11:06:18;101655.94;;;36.68;30.30
7264;BME280;3673;52.480;13.348;2023-08-20T11:08:45;101666.31;;;36.54;30.30
7264;BME280;3673;52.480;13.348;2023-08-20T11:11:12;101667.31;;;36.25;30.26
7264;BME280;3673;52.480;13.348;2023-08-20T11:13:39;101666.72;;;36.69;29.94
7264;BME280;3673;52.480;13.348;2023-08-20T11:16:08;101666.00;;;37.86;27.95
7264;BME280;3673;52.480;13.348;2023-08-20T11:18:36;101666.91;;;37.32;28.03
7264;BME280;3673;52.480;13.348;2023-08-20T11:21:03;101668.50;;;36.88;28.99
7264;BME280;3673;52.480;13.348;2023-08-20T11:23:31;101666.47;;;36.99;28.75
7264;BME280;3673;52.480;13.348;2023-08-20T11:25:58;101671.19;;;37.07;28.62
7264;BME280;3673;52.480;13.348;2023-08-20T11:28:28;101668.44;;;37.07;28.78
7264;BME280;3673;52.480;13.348;2023-08-20T11:30:55;101664.81;;;37.43;28.28
7264;BME280;3673;52.480;13.348;2023-08-20T11:33:23;101654.22;;;37.85;27.61
7264;BME280;3673;52.480;13.348;2023-08-20T11:35:51;101666.88;;;38.39;26.72
7264;BME280;3673;52.480;13.348;2023-08-20T11:38:22;101660.91;;;37.91;27.55
7264;BME280;3673;52.480;13.348;2023-08-20T11:40:50;101662.50;;;37.93;27.13
7264;BME280;3673;52.480;13.348;2023-08-20T11:43:18;101649.81;;;37.02;28.32
7264;BME280;3673;52.480;13.348;2023-08-20T11:45:47;101659.56;;;36.58;28.83
7264;BME280;3673;52.480;13.348;2023-08-20T11:48:14;101662.56;;;37.39;28.70
7264;BME280;3673;52.480;13.348;2023-08-20T11:50:42;101649.88;;;37.92;28.13
7264;BME280;3673;52.480;13.348;2023-08-20T11:53:09;101661.44;;;37.32;28.06
7264;BME280;3673;52.480;13.348;2023-08-20T11:55:39;101657.53;;;36.97;28.76
7264;BME280;3673;52.480;13.348;2023-08-20T11:58:11;101657.09;;;37.11;27.48
7264;BME280;3673;52.480;13.348;2023-08-20T12:00:38;101655.38;;;37.83;26.90
7264;BME280;3673;52.480;13.348;2023-08-20T12:03:05;101660.13;;;37.63;26.52
7264;BME280;3673;52.480;13.348;2023-08-20T12:05:33;101653.25;;;37.32;26.89
7264;BME280;3673;52.480;13.348;2023-08-20T12:08:02;101646.63;;;37.07;27.37
7264;BME280;3673;52.480;13.348;2023-08-20T12:10:31;101649.44;;;38.40;26.37
7264;BME280;3673;52.480;13.348;2023-08-20T12:12:58;101654.31;;;38.54;25.91
7264;BME280;3673;52.480;13.348;2023-08-20T12:15:27;101646.75;;;38.74;25.56
7264;BME280;3673;52.480;13.348;2023-08-20T12:18:02;101654.03;;;37.87;26.05
7264;BME280;3673;52.480;13.348;2023-08-20T12:20:32;101654.06;;;38.04;26.22
7264;BME280;3673;52.480;13.348;2023-08-20T12:23:02;101649.34;;;38.32;26.34
7264;BME280;3673;52.480;13.348;2023-08-20T12:25:32;101649.25;;;38.85;25.81
7264;BME280;3673;52.480;13.348;2023-08-20T12:28:01;101641.91;;;37.99;25.09
7264;BME280;3673;52.480;13.348;2023-08-20T12:30:30;101643.31;;;38.03;25.78
7264;BME280;3673;52.480;13.348;2023-08-20T12:32:57;101653.75;;;37.45;26.47
7264;BME280;3673;52.480;13.348;2023-08-20T12:35:24;101649.66;;;37.58;26.36
7264;BME280;3673;52.480;13.348;2023-08-20T12:37:50;101641.09;;;37.44;27.02
7264;BME280;3673;52.480;13.348;2023-08-20T12:40:17;101639.06;;;38.26;26.12
7264;BME280;3673;52.480;13.348;2023-08-20T12:42:44;101636.31;;;37.01;27.02
7264;BME280;3673;52.480;13.348;2023-08-20T12:45:10;101647.03;;;36.46;26.66
7264;BME280;3673;52.480;13.348;2023-08-20T12:47:40;101647.66;;;35.83;28.14
7264;BME280;3673;52.480;13.348;2023-08-20T12:50:07;101639.63;;;35.81;27.48
7264;BME280;3673;52.480;13.348;2023-08-20T12:52:35;101647.66;;;35.83;27.34
7264;BME280;3673;52.480;13.348;2023-08-20T12:55:02;101645.66;;;35.94;26.72
7264;BME280;3673;52.480;13.348;2023-08-20T12:57:30;101638.09;;;35.29;26.54
7264;BME280;3673;52.480;13.348;2023-08-20T12:59:56;101639.66;;;36.20;25.55
7264;BME280;3673;52.480;13.348;2023-08-20T13:02:24;101635.59;;;35.66;26.03
7264;BME280;3673;52.480;13.348;2023-08-20T13:04:53;101642.81;;;35.46;26.88